Time;durP1;ratioP1;P1;durP2;ratioP2;P2;SDS_P1;SDS_P2;PMS_P1;PMS_P2;Temp;Humidity;BMP_temperature;BMP_pressure;BME280_temperature;BME280_humidity;BME280_pressure;Samples;Min_cycle;Max_cycle;Signal;HPM_P1;HPM_P2
2022/10/02 00:00:05;;;;;;;8.82;6.82;;;17.90;99.90;;;;;;4588926;19;20015;-36
2022/10/02 00:02:16;;;;;;;8.00;6.97;;;17.90;99.90;;;;;;4587586;19;20022;-40
2022/10/02 00:03:47;;;;;;;7.50;6.30;;;17.90;99.90;;;;;;4588584;19;20038;-35
2022/10/02 00:05:19;;;;;;;8.32;6.40;;;17.90;99.90;;;;;;4588097;19;20432;-35
2022/10/02 00:06:50;;;;;;;7.68;6.88;;;17.90;99.90;;;;;;4587956;19;20019;-37
2022/10/02 00:08:29;;;;;;;11.15;7.65;;;17.90;99.90;;;;;;4587216;19;20014;-36
2022/10/02 00:10:02;;;;;;;8.57;6.30;;;17.90;99.90;;;;;;4586416;19;20016;-35
2022/10/02 00:11:43;;;;;;;8.27;7.20;;;17.90;99.90;;;;;;4586830;19;20677;-37
2022/10/02 00:13:23;;;;;;;9.43;6.28;;;17.90;99.90;;;;;;4586832;19;20022;-34
2022/10/02 00:14:59;;;;;;;8.43;7.05;;;17.90;99.90;;;;;;4586335;19;20014;-34
2022/10/02 00:16:41;;;;;;;8.15;6.65;;;17.90;99.90;;;;;;4587035;19;20014;-39
2022/10/02 00:18:17;;;;;;;8.50;7.13;;;17.90;99.90;;;;;;4586922;19;20018;-39
2022/10/02 00:19:53;;;;;;;9.45;8.27;;;17.90;99.90;;;;;;4586612;19;20119;-41
2022/10/02 00:21:36;;;;;;;8.50;7.22;;;17.90;99.90;;;;;;4589713;19;20015;-44
2022/10/02 00:23:28;;;;;;;9.30;7.65;;;17.90;99.90;;;;;;4589901;19;20015;-40
2022/10/02 00:25:02;;;;;;;8.85;7.72;;;17.90;99.90;;;;;;4589584;19;20010;-35
2022/10/02 00:26:38;;;;;;;8.70;7.22;;;17.90;99.90;;;;;;4589502;19;20011;-37
2022/10/02 00:28:09;;;;;;;8.55;7.65;;;17.90;99.90;;;;;;4588418;19;20014;-34
2022/10/02 00:29:48;;;;;;;8.00;6.95;;;17.90;99.90;;;;;;4588760;19;20820;-40
2022/10/02 00:31:40;;;;;;;7.80;6.88;;;17.90;99.90;;;;;;4588452;19;20502;-41
2022/10/02 00:33:20;;;;;;;7.70;6.90;;;17.90;99.90;;;;;;4588585;19;20003;-35
2022/10/02 00:35:03;;;;;;;9.38;7.03;;;17.90;99.90;;;;;;4589315;19;20014;-38
2022/10/02 00:36:49;;;;;;;8.80;6.97;;;17.90;99.90;;;;;;4589425;19;20426;-37
2022/10/02 00:38:59;;;;;;;7.10;6.30;;;17.90;99.90;;;;;;4589567;19;20018;-34
2022/10/02 00:40:41;;;;;;;7.47;6.53;;;17.90;99.90;;;;;;4588960;19;20011;-35
2022/10/02 00:42:51;;;;;;;8.75;6.63;;;17.90;99.90;;;;;;4589264;19;20356;-35
2022/10/02 00:44:29;;;;;;;8.13;6.55;;;17.90;99.90;;;;;;4589677;19;20018;-41
2022/10/02 00:46:21;;;;;;;7.78;6.97;;;17.90;99.90;;;;;;4588503;19;20018;-34
2022/10/02 00:47:58;;;;;;;7.28;6.38;;;17.90;99.90;;;;;;4587901;19;20106;-36
2022/10/02 00:49:55;;;;;;;7.65;6.65;;;17.90;99.90;;;;;;4587109;19;20014;-40
2022/10/02 00:51:41;;;;;;;7.88;6.72;;;17.90;99.90;;;;;;4586716;19;20022;-38
2022/10/02 00:53:48;;;;;;;7.82;6.72;;;17.90;99.90;;;;;;4588529;19;20629;-34
2022/10/02 00:55:43;;;;;;;8.30;6.28;;;17.90;99.90;;;;;;4588675;19;20015;-34
2022/10/02 00:57:23;;;;;;;6.68;5.88;;;17.90;99.90;;;;;;4589372;19;20460;-33
2022/10/02 00:59:15;;;;;;;7.10;6.15;;;17.90;99.90;;;;;;4589543;19;20026;-36
2022/10/02 01:01:04;;;;;;;7.05;6.35;;;17.90;99.90;;;;;;4588819;19;20013;-42
2022/10/02 01:02:35;;;;;;;6.97;5.50;;;17.90;99.90;;;;;;4589165;19;20023;-42
2022/10/02 01:04:14;;;;;;;7.22;6.30;;;17.90;99.90;;;;;;4589236;19;20334;-35
2022/10/02 01:05:45;;;;;;;7.72;5.30;;;17.90;99.90;;;;;;4588185;19;20015;-36
2022/10/02 01:07:17;;;;;;;6.20;5.60;;;17.90;99.90;;;;;;4586867;19;20018;-34
2022/10/02 01:08:48;;;;;;;;;;;17.90;99.90;;;;;;4589399;19;20022;-34
2022/10/02 01:10:26;;;;;;;7.20;6.03;;;17.90;99.90;;;;;;4587871;19;19978;-36
2022/10/02 01:11:57;;;;;;;7.28;6.15;;;17.90;99.90;;;;;;4587517;19;20015;-37
2022/10/02 01:13:29;;;;;;;6.03;5.38;;;17.90;99.90;;;;;;4587040;19;20379;-37
2022/10/02 01:15:00;;;;;;;6.60;5.55;;;17.90;99.90;;;;;;4587736;19;20015;-41
2022/10/02 01:16:31;;;;;;;8.88;5.75;;;17.90;99.90;;;;;;4587742;19;20002;-35
2022/10/02 01:18:03;;;;;;;5.65;4.97;;;17.90;99.90;;;;;;4590530;19;20017;-36
2022/10/02 01:19:38;;;;;;;5.88;4.63;;;17.90;99.90;;;;;;4588840;19;20018;-34
2022/10/02 01:21:32;;;;;;;6.28;4.70;;;17.90;99.90;;;;;;4587969;19;20484;-38
2022/10/02 01:23:22;;;;;;;5.55;4.70;;;17.90;99.90;;;;;;4590531;19;20018;-35
2022/10/02 01:24:56;;;;;;;6.18;5.22;;;17.90;99.90;;;;;;4590548;19;20625;-36
2022/10/02 01:26:27;;;;;;;5.60;4.15;;;17.90;99.90;;;;;;4588474;19;20031;-34
2022/10/02 01:27:59;;;;;;;6.38;4.68;;;17.90;99.90;;;;;;4589795;19;20021;-34
2022/10/02 01:29:30;;;;;;;6.75;5.40;;;17.90;99.90;;;;;;4588616;19;20019;-37
2022/10/02 01:31:09;;;;;;;11.05;7.35;;;17.90;99.90;;;;;;4590252;19;20364;-36
2022/10/02 01:32:48;;;;;;;9.68;6.85;;;17.90;99.90;;;;;;4588327;19;20691;-38
2022/10/02 01:34:19;;;;;;;9.07;6.82;;;17.90;99.90;;;;;;4589051;19;20070;-40
2022/10/02 01:35:50;;;;;;;;;;;17.90;99.90;;;;;;4589960;19;20368;-33
2022/10/02 01:37:23;;;;;;;10.70;7.07;;;17.90;99.90;;;;;;4587754;19;19915;-35
2022/10/02 01:38:54;;;;;;;9.25;6.03;;;17.90;99.90;;;;;;4589046;19;20014;-37
2022/10/02 01:40:30;;;;;;;8.98;6.15;;;18.00;99.90;;;;;;4589160;19;20011;-37
2022/10/02 01:42:01;;;;;;;7.72;5.47;;;18.10;99.90;;;;;;4589570;19;20345;-37
2022/10/02 01:43:41;;;;;;;6.28;4.43;;;18.10;99.90;;;;;;4588237;19;20106;-37
2022/10/02 01:45:12;;;;;;;5.07;4.20;;;18.20;99.90;;;;;;4587954;19;20071;-42
2022/10/02 01:46:43;;;;;;;4.90;4.40;;;18.20;99.90;;;;;;4588406;19;20007;-41
2022/10/02 01:48:22;;;;;;;5.55;4.28;;;18.20;99.90;;;;;;4589548;19;20018;-37
2022/10/02 01:50:17;;;;;;;4.40;3.50;;;18.30;99.90;;;;;;4588305;19;20007;-37
2022/10/02 01:52:00;;;;;;;5.30;3.67;;;18.30;99.90;;;;;;4587813;19;20062;-41
2022/10/02 01:53:38;;;;;;;6.03;3.95;;;18.20;99.90;;;;;;4588447;19;20009;-35
2022/10/02 01:55:15;;;;;;;6.53;4.47;;;18.30;99.90;;;;;;4589588;19;20015;-37
2022/10/02 01:57:00;;;;;;;7.75;5.47;;;18.20;99.90;;;;;;4588318;19;20350;-37
2022/10/02 01:58:37;;;;;;;7.53;4.60;;;18.30;99.90;;;;;;4588324;19;20018;-36
2022/10/02 02:00:13;;;;;;;6.15;4.60;;;18.20;99.90;;;;;;4589926;19;20095;-38
2022/10/02 02:02:23;;;;;;;6.82;4.85;;;18.20;99.90;;;;;;4588008;19;20010;-35
2022/10/02 02:04:05;;;;;;;8.55;5.22;;;18.20;99.90;;;;;;4587861;19;20329;-39
2022/10/02 02:05:46;;;;;;;7.97;4.85;;;18.20;99.90;;;;;;4587533;19;20606;-38
2022/10/02 02:07:34;;;;;;;6.80;4.60;;;18.20;99.90;;;;;;4587763;19;20096;-34
2022/10/02 02:09:10;;;;;;;6.93;4.60;;;18.20;99.90;;;;;;4586861;19;20022;-35
2022/10/02 02:10:50;;;;;;;5.50;3.70;;;18.20;99.90;;;;;;4586133;19;20022;-35
2022/10/02 02:13:01;;;;;;;4.82;3.55;;;18.30;99.90;;;;;;4587316;19;20038;-37
2022/10/02 02:14:33;;;;;;;4.97;3.63;;;18.20;99.90;;;;;;4585943;19;20011;-35
2022/10/02 02:16:07;;;;;;;4.88;3.15;;;18.30;99.90;;;;;;4586518;19;20125;-36
2022/10/02 02:17:51;;;;;;;4.10;3.28;;;18.30;99.90;;;;;;4590442;19;20021;-35
2022/10/02 02:19:30;;;;;;;3.92;2.70;;;18.30;99.90;;;;;;4591607;19;20018;-34
2022/10/02 02:21:08;;;;;;;5.20;3.38;;;18.30;99.90;;;;;;4591120;19;20027;-34
2022/10/02 02:22:43;;;;;;;4.18;3.00;;;18.30;99.90;;;;;;4590644;19;20468;-42
2022/10/02 02:24:23;;;;;;;4.43;2.70;;;18.20;99.90;;;;;;4590620;19;20007;-37
2022/10/02 02:25:58;;;;;;;3.60;2.83;;;18.20;99.90;;;;;;4589362;19;20361;-38
2022/10/02 02:27:32;;;;;;;3.85;2.78;;;18.20;99.90;;;;;;4589129;19;20431;-36
2022/10/02 02:29:05;;;;;;;4.55;3.15;;;18.20;99.90;;;;;;4588787;19;20022;-38
2022/10/02 02:30:37;;;;;;;3.72;2.90;;;18.20;99.90;;;;;;4589101;19;20346;-36
2022/10/02 02:32:09;;;;;;;4.35;2.92;;;18.20;99.90;;;;;;4588849;19;20014;-37
2022/10/02 02:33:41;;;;;;;;;;;18.20;99.90;;;;;;4592746;19;20026;-35
2022/10/02 02:35:16;;;;;;;3.58;2.42;;;18.20;99.90;;;;;;4590705;19;19926;-35
2022/10/02 02:36:50;;;;;;;3.40;2.35;;;18.20;99.90;;;;;;4590808;19;20014;-38
2022/10/02 02:38:32;;;;;;;4.05;2.90;;;18.20;99.90;;;;;;4590347;19;20062;-41
2022/10/02 02:40:06;;;;;;;3.75;2.72;;;18.10;99.90;;;;;;4590457;19;20562;-36
2022/10/02 02:41:52;;;;;;;3.85;2.35;;;18.10;99.90;;;;;;4590169;19;20035;-35
2022/10/02 02:43:26;;;;;;;3.28;2.42;;;18.10;99.90;;;;;;4590076;19;20007;-38
2022/10/02 02:45:09;;;;;;;2.40;1.98;;;18.10;99.90;;;;;;4589533;19;20428;-34
2022/10/02 02:47:05;;;;;;;3.80;2.78;;;18.10;99.90;;;;;;4590204;19;20109;-40
2022/10/02 02:48:39;;;;;;;5.82;3.47;;;18.10;99.90;;;;;;4590649;19;20018;-36
2022/10/02 02:50:10;;;;;;;4.30;2.90;;;18.10;99.90;;;;;;4590096;19;20015;-37
2022/10/02 02:51:41;;;;;;;5.22;2.90;;;18.10;99.90;;;;;;4591572;19;20015;-36
2022/10/02 02:53:17;;;;;;;4.20;2.75;;;18.10;99.90;;;;;;4591647;19;20021;-37
2022/10/02 02:55:01;;;;;;;3.40;2.55;;;18.10;99.90;;;;;;4588797;19;20010;-36
2022/10/02 02:56:32;;;;;;;3.13;2.55;;;18.00;99.90;;;;;;4589467;19;20019;-38
2022/10/02 02:58:11;;;;;;;4.28;2.60;;;18.00;99.90;;;;;;4588379;19;20150;-39
2022/10/02 02:59:44;;;;;;;4.55;2.60;;;18.10;99.90;;;;;;4589025;19;20018;-34
2022/10/02 03:01:15;;;;;;;3.50;2.47;;;18.10;99.90;;;;;;4588346;19;20019;-37
2022/10/02 03:02:46;;;;;;;4.03;3.05;;;18.10;99.90;;;;;;4588482;19;20032;-38
2022/10/02 03:04:17;;;;;;;4.38;3.00;;;18.10;99.90;;;;;;4590876;19;20066;-34
2022/10/02 03:05:50;;;;;;;3.38;2.92;;;18.10;99.90;;;;;;4590086;19;20425;-36
2022/10/02 03:07:21;;;;;;;3.95;2.30;;;18.10;99.90;;;;;;4590183;19;20018;-34
2022/10/02 03:08:52;;;;;;;3.28;2.50;;;18.10;99.90;;;;;;4588888;19;20088;-38
2022/10/02 03:10:27;;;;;;;4.15;2.53;;;18.00;99.90;;;;;;4587936;19;20086;-37
2022/10/02 03:12:07;;;;;;;3.47;2.60;;;18.00;99.90;;;;;;4588873;19;20018;-34
2022/10/02 03:13:47;;;;;;;4.38;2.47;;;18.00;99.90;;;;;;4589247;19;20031;-40
2022/10/02 03:15:32;;;;;;;3.30;2.55;;;18.00;99.90;;;;;;4588738;19;20530;-34
2022/10/02 03:17:57;;;;;;;4.05;2.42;;;18.00;99.90;;;;;;4588671;19;20018;-39
2022/10/02 03:19:37;;;;;;;3.80;2.42;;;18.00;99.90;;;;;;4590641;19;20066;-39
2022/10/02 03:21:15;;;;;;;4.38;2.72;;;18.00;99.90;;;;;;4589565;19;20472;-34
2022/10/02 03:23:11;;;;;;;5.63;2.92;;;18.00;99.90;;;;;;4589970;19;20018;-35
2022/10/02 03:24:47;;;;;;;4.45;2.45;;;18.00;99.90;;;;;;4590370;19;20035;-38
2022/10/02 03:26:26;;;;;;;4.05;2.70;;;18.00;99.90;;;;;;4588878;19;20023;-35
2022/10/02 03:28:11;;;;;;;4.10;2.90;;;18.00;99.90;;;;;;4588931;19;20024;-36
2022/10/02 03:30:03;;;;;;;4.90;3.05;;;18.00;99.90;;;;;;4589005;19;20510;-37
2022/10/02 03:31:34;;;;;;;6.15;2.80;;;18.00;99.90;;;;;;4589937;19;20010;-35
2022/10/02 03:33:05;;;;;;;4.18;3.00;;;18.00;99.90;;;;;;4588671;19;20349;-37
2022/10/02 03:34:36;;;;;;;4.15;2.80;;;18.00;99.90;;;;;;4588772;19;20361;-35
2022/10/02 03:36:09;;;;;;;4.82;2.70;;;18.00;99.90;;;;;;4587878;19;20015;-35
2022/10/02 03:37:42;;;;;;;5.63;3.10;;;17.90;99.90;;;;;;4587723;19;20015;-36
2022/10/02 03:39:14;;;;;;;4.03;3.00;;;17.90;99.90;;;;;;4587382;19;20026;-38
2022/10/02 03:40:45;;;;;;;6.68;4.00;;;17.90;99.90;;;;;;4588017;19;20014;-35
2022/10/02 03:42:16;;;;;;;4.15;3.13;;;17.90;99.90;;;;;;4590072;19;20170;-34
2022/10/02 03:43:47;;;;;;;4.60;3.08;;;17.90;99.90;;;;;;4589613;19;20519;-37
2022/10/02 03:45:18;;;;;;;3.38;2.65;;;17.90;99.90;;;;;;4589175;19;20083;-34
2022/10/02 03:46:49;;;;;;;3.78;2.30;;;18.00;99.90;;;;;;4588921;19;20040;-39
2022/10/02 03:48:20;;;;;;;4.38;2.63;;;17.90;99.90;;;;;;4588819;19;20006;-38
2022/10/02 03:49:51;;;;;;;4.15;2.60;;;17.90;99.90;;;;;;4587381;19;20007;-35
2022/10/02 03:51:23;;;;;;;5.47;2.88;;;17.90;99.90;;;;;;4587805;19;20006;-37
2022/10/02 03:52:54;;;;;;;3.50;2.65;;;17.90;99.90;;;;;;4587925;19;20044;-36
2022/10/02 03:54:25;;;;;;;5.65;2.90;;;17.90;99.90;;;;;;4589178;19;20014;-34
2022/10/02 03:56:12;;;;;;;4.63;2.67;;;17.90;99.90;;;;;;4592142;19;20021;-34
2022/10/02 03:57:44;;;;;;;4.80;2.70;;;18.00;99.90;;;;;;4588333;19;20078;-38
2022/10/02 03:59:18;;;;;;;2.97;2.33;;;18.00;99.90;;;;;;4590514;19;20010;-34
2022/10/02 04:00:52;;;;;;;3.60;2.47;;;18.00;99.90;;;;;;4590775;19;20077;-37
2022/10/02 04:02:32;;;;;;;6.60;3.00;;;17.90;99.90;;;;;;4591086;19;20010;-37
2022/10/02 04:04:18;;;;;;;4.95;2.88;;;17.90;99.90;;;;;;4591065;19;20018;-40
2022/10/02 04:06:11;;;;;;;4.07;2.60;;;17.90;99.90;;;;;;4590342;19;20511;-36
2022/10/02 04:07:42;;;;;;;4.20;3.00;;;17.90;99.90;;;;;;4590520;19;20464;-40
2022/10/02 04:09:17;;;;;;;;;;;17.90;99.90;;;;;;4589953;19;20025;-36
2022/10/02 04:10:52;;;;;;;3.58;2.67;;;17.90;99.90;;;;;;4590022;19;19910;-37
2022/10/02 04:12:30;;;;;;;4.10;2.55;;;17.90;99.90;;;;;;4590427;19;20018;-35
2022/10/02 04:14:24;;;;;;;3.10;2.40;;;17.90;99.90;;;;;;4589708;19;20018;-38
2022/10/02 04:16:11;;;;;;;5.28;2.97;;;17.90;99.90;;;;;;4590162;19;20020;-38
2022/10/02 04:17:48;;;;;;;3.83;2.60;;;17.90;99.90;;;;;;4591150;19;20460;-37
2022/10/02 04:19:43;;;;;;;4.15;2.63;;;17.90;99.90;;;;;;4589551;19;20010;-35
2022/10/02 04:21:29;;;;;;;4.55;2.83;;;17.90;99.90;;;;;;4590218;19;20343;-38
2022/10/02 04:23:25;;;;;;;3.40;2.15;;;17.90;99.90;;;;;;4591652;19;20507;-39
2022/10/02 04:25:02;;;;;;;3.72;2.17;;;17.90;99.90;;;;;;4590037;19;20015;-40
2022/10/02 04:26:34;;;;;;;3.88;2.08;;;17.90;99.90;;;;;;4589441;19;20029;-35
2022/10/02 04:28:06;;;;;;;3.17;2.13;;;17.90;99.90;;;;;;4589397;19;20111;-34
2022/10/02 04:29:50;;;;;;;3.53;2.28;;;17.90;99.90;;;;;;4588446;19;20018;-38
2022/10/02 04:31:23;;;;;;;4.80;2.22;;;17.90;99.90;;;;;;4588629;19;20026;-34
2022/10/02 04:32:55;;;;;;;2.42;2.08;;;17.80;99.90;;;;;;4589646;19;20489;-38
2022/10/02 04:34:27;;;;;;;3.40;2.22;;;17.90;99.90;;;;;;4587066;19;20014;-35
2022/10/02 04:36:04;;;;;;;5.45;2.40;;;17.80;99.90;;;;;;4587232;19;20094;-35
2022/10/02 04:37:41;;;;;;;3.70;2.25;;;17.80;99.90;;;;;;4589378;19;20022;-35
2022/10/02 04:39:18;;;;;;;4.90;2.65;;;17.90;99.90;;;;;;4589974;19;20033;-39
2022/10/02 04:41:13;;;;;;;4.10;2.47;;;17.90;99.90;;;;;;4590744;19;20011;-34
2022/10/02 04:43:14;;;;;;;4.22;2.50;;;17.90;99.90;;;;;;4590130;19;20021;-37
2022/10/02 04:44:58;;;;;;;4.95;2.88;;;18.00;99.90;;;;;;4588010;19;20375;-34
2022/10/02 04:46:54;;;;;;;3.83;2.33;;;18.00;99.90;;;;;;4590351;19;20027;-35
2022/10/02 04:48:53;;;;;;;3.72;2.50;;;18.00;99.90;;;;;;4589187;19;20393;-37
2022/10/02 04:50:42;;;;;;;3.72;2.65;;;18.00;99.90;;;;;;4587113;19;20518;-34
2022/10/02 04:52:37;;;;;;;4.38;2.35;;;18.00;99.90;;;;;;4589776;19;20018;-38
2022/10/02 04:54:43;;;;;;;3.85;2.30;;;18.00;99.90;;;;;;4589397;19;20052;-35
2022/10/02 04:56:37;;;;;;;3.35;2.17;;;18.00;99.90;;;;;;4586545;19;20019;-33
2022/10/02 04:58:11;;;;;;;4.05;1.92;;;18.00;99.90;;;;;;4588677;19;20011;-37
2022/10/02 05:00:00;;;;;;;3.00;1.73;;;18.00;99.90;;;;;;4587247;19;20065;-33
2022/10/02 05:01:42;;;;;;;5.70;2.08;;;18.00;99.90;;;;;;4588400;19;20036;-34
2022/10/02 05:03:16;;;;;;;4.47;1.70;;;18.00;99.90;;;;;;4586313;19;20018;-39
2022/10/02 05:04:51;;;;;;;4.28;2.03;;;18.00;99.90;;;;;;4587009;19;20018;-37
2022/10/02 05:06:35;;;;;;;4.50;2.05;;;18.00;99.90;;;;;;4586609;19;20038;-35
2022/10/02 05:08:19;;;;;;;4.85;2.22;;;18.00;99.90;;;;;;4588736;19;20039;-34
2022/10/02 05:10:00;;;;;;;3.78;1.92;;;18.00;99.90;;;;;;4586146;19;20023;-33
2022/10/02 05:11:37;;;;;;;3.70;2.20;;;18.00;99.90;;;;;;4587547;19;20049;-34
2022/10/02 05:13:29;;;;;;;4.40;2.30;;;18.00;99.90;;;;;;4587114;19;20015;-36
2022/10/02 05:15:03;;;;;;;3.92;2.15;;;17.90;99.90;;;;;;4587856;19;20015;-35
2022/10/02 05:16:47;;;;;;;4.05;1.55;;;17.90;99.90;;;;;;4586871;19;20022;-37
2022/10/02 05:18:46;;;;;;;3.53;1.50;;;17.90;99.90;;;;;;4587233;19;20095;-36
2022/10/02 05:20:43;;;;;;;3.58;1.70;;;17.90;99.90;;;;;;4588297;19;20530;-33
2022/10/02 05:22:41;;;;;;;3.60;1.85;;;17.90;99.90;;;;;;4586781;19;20115;-36
2022/10/02 05:24:29;;;;;;;4.65;1.60;;;17.90;99.90;;;;;;4587150;19;20074;-35
2022/10/02 05:26:18;;;;;;;5.00;1.85;;;17.90;99.90;;;;;;4588308;19;20035;-34
2022/10/02 05:27:52;;;;;;;3.65;1.70;;;17.90;99.90;;;;;;4587776;19;20010;-37
2022/10/02 05:29:42;;;;;;;3.38;2.05;;;17.80;99.90;;;;;;4586069;19;20078;-40
2022/10/02 05:31:47;;;;;;;4.50;1.92;;;17.80;99.90;;;;;;4587391;19;20103;-35
2022/10/02 05:33:39;;;;;;;3.72;1.50;;;17.80;99.90;;;;;;4587812;19;20567;-37
2022/10/02 05:35:35;;;;;;;5.43;2.10;;;17.80;99.90;;;;;;4588035;19;20006;-40
2022/10/02 05:37:43;;;;;;;5.47;1.98;;;17.80;99.90;;;;;;4588055;19;20018;-34
2022/10/02 05:39:36;;;;;;;4.10;1.65;;;17.80;99.90;;;;;;4586635;19;20019;-36
2022/10/02 05:41:18;;;;;;;5.53;1.90;;;17.90;99.90;;;;;;4586415;19;20031;-38
2022/10/02 05:43:21;;;;;;;;;;;17.90;99.90;;;;;;4587484;19;20066;-38
2022/10/02 05:44:58;;;;;;;3.85;1.73;;;17.80;99.90;;;;;;4586826;19;19921;-35
2022/10/02 05:46:53;;;;;;;5.55;1.70;;;17.80;99.90;;;;;;4585701;19;20098;-34
2022/10/02 05:48:36;;;;;;;6.38;1.83;;;17.80;99.90;;;;;;4587161;19;20007;-34
2022/10/02 05:50:17;;;;;;;4.03;1.52;;;17.80;99.90;;;;;;4586007;19;20015;-34
2022/10/02 05:52:15;;;;;;;4.10;1.65;;;17.80;99.90;;;;;;4587136;19;20011;-35
2022/10/02 05:54:14;;;;;;;5.63;1.70;;;17.90;99.90;;;;;;4591769;19;20018;-39
2022/10/02 05:55:52;;;;;;;4.10;1.80;;;17.80;99.90;;;;;;4591915;19;20010;-34
2022/10/02 05:57:25;;;;;;;5.68;1.60;;;17.80;99.90;;;;;;4590416;19;20025;-36
2022/10/02 05:59:21;;;;;;;5.47;2.00;;;17.80;99.90;;;;;;4590802;19;20017;-41
2022/10/02 06:00:55;;;;;;;5.13;2.05;;;17.80;99.90;;;;;;4590030;19;20022;-36
2022/10/02 06:02:28;;;;;;;5.55;1.85;;;17.80;99.90;;;;;;4591019;19;20042;-36
2022/10/02 06:04:07;;;;;;;;;;;17.80;99.90;;;;;;4590872;19;20026;-38
2022/10/02 06:06:25;;;;;;;4.45;1.80;;;17.80;99.90;;;;;;4591390;19;19914;-37
2022/10/02 06:08:16;;;;;;;5.80;2.17;;;17.80;99.90;;;;;;4611975;19;20072;-35
2022/10/02 06:09:58;;;;;;;4.45;2.30;;;17.90;99.90;;;;;;4612360;19;20105;-36
2022/10/02 06:11:56;;;;;;;4.07;1.75;;;17.90;99.90;;;;;;4613237;19;20022;-34
2022/10/02 06:13:51;;;;;;;8.13;2.53;;;17.90;99.90;;;;;;4611092;19;20007;-37
2022/10/02 06:15:32;;;;;;;4.22;1.77;;;17.90;99.90;;;;;;4610709;19;20050;-39
2022/10/02 06:17:11;;;;;;;6.80;2.10;;;18.00;99.90;;;;;;4609732;19;20018;-34
2022/10/02 06:18:45;;;;;;;4.97;1.92;;;18.00;99.90;;;;;;4609062;19;20018;-39
2022/10/02 06:20:27;;;;;;;6.30;2.63;;;18.10;99.90;;;;;;4608647;19;20014;-40
2022/10/02 06:22:07;;;;;;;6.78;1.80;;;18.10;99.90;;;;;;4607769;19;20039;-35
2022/10/02 06:23:39;;;;;;;5.78;2.25;;;18.20;99.90;;;;;;4608937;19;20467;-37
2022/10/02 06:25:53;;;;;;;4.53;1.83;;;18.20;99.90;;;;;;4610043;19;20037;-35
2022/10/02 06:27:32;;;;;;;6.45;1.98;;;18.30;99.90;;;;;;4607417;19;20026;-36
2022/10/02 06:29:23;;;;;;;6.07;2.33;;;18.20;99.90;;;;;;4609838;19;20020;-35
2022/10/02 06:30:59;;;;;;;4.53;1.90;;;18.30;99.90;;;;;;4610444;19;20461;-38
2022/10/02 06:32:39;;;;;;;5.53;1.75;;;18.30;99.90;;;;;;4609129;19;20504;-43
2022/10/02 06:34:11;;;;;;;4.28;1.65;;;18.30;99.90;;;;;;4609661;19;20105;-41
2022/10/02 06:36:05;;;;;;;5.10;1.63;;;18.30;99.90;;;;;;4608096;19;20014;-35
2022/10/02 06:37:56;;;;;;;5.10;1.92;;;18.40;99.90;;;;;;4608392;19;20055;-37
2022/10/02 06:40:04;;;;;;;4.85;1.73;;;18.40;99.90;;;;;;4610434;19;20022;-34
2022/10/02 06:41:58;;;;;;;4.28;1.77;;;18.40;99.90;;;;;;4609629;19;20018;-38
2022/10/02 06:43:54;;;;;;;3.35;1.48;;;18.40;99.90;;;;;;4608552;19;20034;-36
2022/10/02 06:45:31;;;;;;;5.45;1.85;;;18.40;99.90;;;;;;4609123;19;20018;-35
2022/10/02 06:47:33;;;;;;;5.95;2.53;;;18.40;99.90;;;;;;4608693;19;20014;-35
2022/10/02 06:49:21;;;;;;;4.88;1.90;;;18.40;99.90;;;;;;4609390;19;20010;-41
2022/10/02 06:50:58;;;;;;;4.78;1.60;;;18.30;99.90;;;;;;4609912;19;20021;-39
2022/10/02 06:52:48;;;;;;;6.45;2.20;;;18.30;99.90;;;;;;4610363;19;20468;-36
2022/10/02 06:54:42;;;;;;;9.48;2.17;;;18.40;99.90;;;;;;4609562;19;20042;-39
2022/10/02 06:56:31;;;;;;;4.50;1.70;;;18.40;99.90;;;;;;4608637;19;20496;-37
2022/10/02 06:58:12;;;;;;;5.53;1.90;;;18.40;99.90;;;;;;4610418;19;20459;-39
2022/10/02 07:00:09;;;;;;;6.15;1.90;;;18.40;99.90;;;;;;4609376;19;20086;-41
2022/10/02 07:01:55;;;;;;;4.60;2.30;;;18.40;99.90;;;;;;4607625;19;20014;-34
2022/10/02 07:04:11;;;;;;;6.43;1.95;;;18.30;99.90;;;;;;4610011;19;20065;-37
2022/10/02 07:06:00;;;;;;;4.45;1.83;;;18.30;99.90;;;;;;4609916;19;20399;-40
2022/10/02 07:07:41;;;;;;;4.80;1.80;;;18.40;99.90;;;;;;4607342;19;20034;-37
2022/10/02 07:09:12;;;;;;;4.28;1.42;;;18.40;99.90;;;;;;4609879;19;20018;-37
2022/10/02 07:11:08;;;;;;;5.05;1.52;;;18.40;99.90;;;;;;4609195;19;20015;-36
2022/10/02 07:12:42;;;;;;;8.77;2.28;;;18.40;99.90;;;;;;4607963;19;20030;-43
2022/10/02 07:14:54;;;;;;;6.20;2.28;;;18.30;99.90;;;;;;4608841;19;20022;-41
2022/10/02 07:16:36;;;;;;;4.55;2.30;;;18.30;99.90;;;;;;4608968;19;20090;-39
2022/10/02 07:18:34;;;;;;;6.50;2.13;;;18.20;99.90;;;;;;4609156;19;20105;-34
2022/10/02 07:20:24;;;;;;;6.03;1.90;;;18.10;99.90;;;;;;4591866;19;20038;-37
2022/10/02 07:22:00;;;;;;;3.75;1.73;;;18.00;99.90;;;;;;4589068;19;20472;-38
2022/10/02 07:23:35;;;;;;;5.30;2.00;;;18.00;99.90;;;;;;4590243;19;20017;-39
2022/10/02 07:25:15;;;;;;;5.65;2.20;;;18.00;99.90;;;;;;4592208;19;20007;-35
2022/10/02 07:27:01;;;;;;;5.00;1.98;;;18.00;99.90;;;;;;4590977;19;20519;-36
2022/10/02 07:28:42;;;;;;;5.55;2.40;;;18.00;99.90;;;;;;4592033;19;20031;-35
2022/10/02 07:30:16;;;;;;;7.18;2.60;;;18.00;99.90;;;;;;4591309;19;20026;-34
2022/10/02 07:31:58;;;;;;;5.75;2.22;;;18.00;99.90;;;;;;4590507;19;20028;-35
2022/10/02 07:33:57;;;;;;;5.20;1.65;;;18.00;99.90;;;;;;4591633;19;20014;-39
2022/10/02 07:35:40;;;;;;;4.47;1.90;;;18.00;99.90;;;;;;4589990;19;20070;-36
2022/10/02 07:37:49;;;;;;;5.55;1.92;;;18.00;99.90;;;;;;4591350;19;20059;-35
2022/10/02 07:39:39;;;;;;;5.25;1.88;;;18.00;99.90;;;;;;4588912;19;20046;-35
2022/10/02 07:41:34;;;;;;;5.72;1.83;;;18.00;99.90;;;;;;4591219;19;20379;-37
2022/10/02 07:43:27;;;;;;;5.30;2.33;;;18.00;99.90;;;;;;4590715;19;20022;-39
2022/10/02 07:44:58;;;;;;;5.72;2.35;;;18.00;99.90;;;;;;4590341;19;20024;-35
2022/10/02 07:46:35;;;;;;;5.15;1.83;;;17.90;99.90;;;;;;4590734;19;20468;-37
2022/10/02 07:48:14;;;;;;;5.28;2.63;;;17.90;99.90;;;;;;4588802;19;20011;-35
2022/10/02 07:50:06;;;;;;;3.60;1.55;;;17.90;99.90;;;;;;4589196;19;20010;-35
2022/10/02 07:51:50;;;;;;;4.75;1.50;;;17.90;99.90;;;;;;4589651;19;20014;-36
2022/10/02 07:53:30;;;;;;;6.38;2.47;;;18.00;99.90;;;;;;4589719;19;20018;-36
2022/10/02 07:55:10;;;;;;;6.10;1.88;;;17.90;99.90;;;;;;4589009;19;20014;-39
2022/10/02 07:56:42;;;;;;;4.65;2.05;;;18.00;99.90;;;;;;4591283;19;20015;-40
2022/10/02 07:58:37;;;;;;;4.57;2.00;;;17.90;99.90;;;;;;4589723;19;20536;-42
2022/10/02 08:00:11;;;;;;;6.68;1.80;;;17.90;99.90;;;;;;4590666;19;20039;-38
2022/10/02 08:01:43;;;;;;;4.18;1.42;;;18.00;99.90;;;;;;4590112;19;20010;-37
2022/10/02 08:03:28;;;;;;;5.95;2.00;;;18.10;99.90;;;;;;4589794;19;20018;-38
2022/10/02 08:05:01;;;;;;;5.85;2.10;;;18.00;99.90;;;;;;4589068;19;20498;-40
2022/10/02 08:06:32;;;;;;;5.65;2.15;;;18.00;99.90;;;;;;4590763;19;20021;-35
2022/10/02 08:08:23;;;;;;;4.82;2.00;;;17.90;99.90;;;;;;4588612;19;20078;-35
2022/10/02 08:09:54;;;;;;;3.28;2.05;;;17.90;99.90;;;;;;4589191;19;20565;-37
2022/10/02 08:11:42;;;;;;;4.30;1.90;;;17.90;99.90;;;;;;4590605;19;20018;-35
2022/10/02 08:13:21;;;;;;;4.05;1.70;;;17.90;99.90;;;;;;4589623;19;20089;-42
2022/10/02 08:14:54;;;;;;;4.05;1.48;;;17.80;99.90;;;;;;4591222;19;20014;-35
2022/10/02 08:16:32;;;;;;;5.95;1.90;;;17.90;99.90;;;;;;4589844;19;20044;-43
2022/10/02 08:18:17;;;;;;;4.80;1.73;;;17.90;99.90;;;;;;4589940;19;20018;-35
2022/10/02 08:19:49;;;;;;;3.50;1.40;;;17.90;99.90;;;;;;4589557;19;20446;-40
2022/10/02 08:21:21;;;;;;;4.43;1.70;;;17.90;99.90;;;;;;4589432;19;20082;-37
2022/10/02 08:22:59;;;;;;;5.13;1.90;;;18.00;99.90;;;;;;4590438;19;20540;-34
2022/10/02 08:24:41;;;;;;;4.82;1.80;;;18.00;99.90;;;;;;4589420;19;20014;-35
2022/10/02 08:26:29;;;;;;;4.10;1.63;;;18.00;99.90;;;;;;4590222;19;20022;-36
2022/10/02 08:28:15;;;;;;;3.30;1.48;;;18.00;99.90;;;;;;4589386;19;20014;-36
2022/10/02 08:29:51;;;;;;;7.95;1.80;;;18.00;99.90;;;;;;4588920;19;20026;-36
2022/10/02 08:31:23;;;;;;;6.82;2.03;;;18.00;99.90;;;;;;4587740;19;20007;-34
2022/10/02 08:32:54;;;;;;;7.38;3.72;;;18.00;99.90;;;;;;4589122;19;20018;-34
2022/10/02 08:34:26;;;;;;;5.57;2.30;;;18.00;99.90;;;;;;4589489;19;20118;-35
2022/10/02 08:36:20;;;;;;;3.65;1.83;;;18.00;99.90;;;;;;4589914;19;20038;-38
2022/10/02 08:38:11;;;;;;;3.80;1.80;;;18.00;99.90;;;;;;4588923;19;20018;-37
2022/10/02 08:40:15;;;;;;;6.30;2.58;;;17.90;99.90;;;;;;4588822;19;20059;-35
2022/10/02 08:42:08;;;;;;;5.72;1.77;;;17.80;99.90;;;;;;4590137;19;20018;-36
2022/10/02 08:43:52;;;;;;;4.35;1.60;;;17.80;99.90;;;;;;4589726;19;20043;-35
2022/10/02 08:45:55;;;;;;;4.82;1.65;;;17.80;99.90;;;;;;4589227;19;20495;-34
2022/10/02 08:48:06;;;;;;;8.02;3.38;;;17.80;99.90;;;;;;4588360;19;20010;-36
2022/10/02 08:49:56;;;;;;;5.95;2.05;;;17.90;99.90;;;;;;4589315;19;20368;-42
2022/10/02 08:51:47;;;;;;;4.38;1.98;;;17.90;99.90;;;;;;4589386;19;20526;-37
2022/10/02 08:53:48;;;;;;;5.83;1.97;;;18.00;99.90;;;;;;4589028;19;20031;-40